Aquinnah, MA

3:58 PM EST on December 19, 2014 (GMT -0500)
High Mark | Change Station
CLOSE
Current Station
Personal Weather Station
Location: Chilmark, MA
Elevation: 186 ft
Nearby Weather Stations

Elev 186 ft 41.35 °N, 70.74 °W | Updated 14 seconds ago

Overcast
Overcast
34.9 °F
Feels Like 35 °F
N
2.0
Wind Variable Wind from North
Gusts 11.0 mph

Today
High -- | Low -- °F
--% Chance of Precip.
Yesterday
High -- | Low -- °F
Precip. -- in
7:04 AM 4:15 PM
Waning Crescent, 6% visible
Pressure 29.99 in
Visibility 10.0 miles
Clouds Overcast 3100 ft
Windchill 35 °F
Dew Point 26 °F
Humidity 69%
Rainfall 0.00 in
Snow Depth Not available.
UV 0.0 out of 12
Pollen .10 out of 12
Air Quality Not available.
Flu Activity Not available.
METAR KMVY 192053Z 33009KT 10SM OVC031 02/M06 A2999 RMK AO2 SLP155 T00171061 53020

More Conditions Fewer Conditions

Pressure 29.99 in
Visibility 10.0 miles
Clouds Overcast 3100 ft
Windchill 35 °F
Dew Point 26 °F
Humidity 69%
Rainfall 0.00 in
Snow Depth Not available.
UV 0.0 out of 12
Pollen .10 out of 12
Air Quality Not available.
Flu Activity Not available.
METAR KMVY 192053Z 33009KT 10SM OVC031 02/M06 A2999 RMK AO2 SLP155 T00171061 53020

More Conditions Fewer Conditions

10-Day Weather Forecast

Almanac

Astronomy

Dec. 19, 2014 Rise Set
Actual Time
Civil Twilight
Nautical Twilight
Astronomical Twilight
Moon
Length of Visible Light
Length of Day
Tomorrow will be .
, % of the Moon is Illuminated

Today's Extremes

State Highs State Lows

Community

WunderPhotos

Upload Photos

1,779,048 photos uploaded!

WunderBlogs® & News

Nearby

Air Quality

  Air Quality AQ Index Pollutant
Not available.

Snow Depth

Station Depth Elevation

Earthquake Activity

City Distance Mag. Time & Date
Minimum magnitude displayed is 2.5.

Coastal Water Temperatures

Place Temperature

Nearby Weather Stations